Estación de Longaví Norte

Ultimos registro cada 15 minutos 42
Estación Fecha / Hora Temperatura Humedad Lluvia Velocidad Dirección Radiación Presion
42 Longaví Norte 04-09-2026 10:15 4 99 0 1 220 193,1 1007,1
41 Longaví Norte 04-09-2026 10:00 3,7 99,9 0 1 209 216,9 1007,1
40 Longaví Norte 04-09-2026 09:45 3,3 100 0 1 204 158,1 1007,1
39 Longaví Norte 04-09-2026 09:30 3,3 100 0 0,7 219 121,9 1007,1
38 Longaví Norte 04-09-2026 09:15 3,1 100 0 1 236 104,4 1007,1
37 Longaví Norte 04-09-2026 09:00 2,9 100 0 0,7 219 93,1 1007
36 Longaví Norte 04-09-2026 08:45 2,9 100 0 1 202 83,1 1006,9
35 Longaví Norte 04-09-2026 08:30 2,5 100 0 1,3 230 75,6 1006,8
34 Longaví Norte 04-09-2026 08:15 2,5 100 0 1,3 219 60,6 1006,8
33 Longaví Norte 04-09-2026 08:00 2,4 100 0 1,3 222 54,4 1006,7
32 Longaví Norte 04-09-2026 07:45 2,2 100 0 0,7 226 30,6 1006,5
31 Longaví Norte 04-09-2026 07:30 1,1 100 0 0 248 21,9 1006,3
30 Longaví Norte 04-09-2026 07:15 0,5 100 0 0 248 6,9 1006,4
29 Longaví Norte 04-09-2026 07:00 1 100 0 0 248 1,9 1006,3
28 Longaví Norte 04-09-2026 06:45 0,2 100 0 0 248 0,6 1006,1
27 Longaví Norte 04-09-2026 06:30 0,4 100 0 0 248 0,6 1006
26 Longaví Norte 04-09-2026 06:15 0,2 100 0 0 248 0,6 1006
25 Longaví Norte 04-09-2026 06:00 0,4 100 0 0 248 0,6 1006
24 Longaví Norte 04-09-2026 05:45 0,5 100 0 0 248 0,6 1005,9
23 Longaví Norte 04-09-2026 05:30 0,5 100 0 0 248 0,6 1006
22 Longaví Norte 04-09-2026 05:15 0,5 100 0 0 248 0,6 1005,9
21 Longaví Norte 04-09-2026 05:00 1 100 0 0 248 0,6 1006
20 Longaví Norte 04-09-2026 04:45 1 100 0 0 248 0,6 1005,8
19 Longaví Norte 04-09-2026 04:30 1,2 100 0 0 248 0,6 1005,7
18 Longaví Norte 04-09-2026 04:15 1,2 100 0 0 248 0,6 1005,7
17 Longaví Norte 04-09-2026 04:00 1,8 100 0 0 248 0,6 1005,7
16 Longaví Norte 04-09-2026 03:45 1,9 100 0 0 248 0,6 1005,8
15 Longaví Norte 04-09-2026 03:30 2 100 0 0 250 0,6 1005,8
14 Longaví Norte 04-09-2026 03:15 2,2 100 0 0 253 0,6 1006
13 Longaví Norte 04-09-2026 03:00 2,9 100 0 0 253 0,6 1006
12 Longaví Norte 04-09-2026 02:45 2,9 100 0 0 253 0,6 1006
11 Longaví Norte 04-09-2026 02:30 2,4 99,9 0 0 253 0,6 1006,1
10 Longaví Norte 04-09-2026 02:15 2,5 99,7 0 0 253 0,6 1006
9 Longaví Norte 04-09-2026 02:00 2,9 99,5 0 0 253 0,6 1006
8 Longaví Norte 04-09-2026 01:45 3,1 99,6 0 0 253 0,6 1006,1
7 Longaví Norte 04-09-2026 01:30 3 99,6 0 0 253 0,6 1006,1
6 Longaví Norte 04-09-2026 01:15 2,8 99,4 0 0 253 0,6 1006,2
5 Longaví Norte 04-09-2026 01:00 2,6 99,1 0 0 239 0,6 1006,2
4 Longaví Norte 04-09-2026 00:45 2,9 99,3 0 0 232 0,6 1006,3
3 Longaví Norte 04-09-2026 00:30 2,6 99 0 0 232 0,6 1006,3
2 Longaví Norte 04-09-2026 00:15 3,2 99 0 0 232 0,6 1006,4
1 Longaví Norte 04-09-2026 00:00 3,4 98,7 0 0 232 0,6 1006,5